AFR74DU LFPG-LFBO
Flight info
| Callsign | AFR74DU |
|---|---|
| Flight time | 1h 18m |
| Altitude | 35000 |
| Route | ERIXU DCT ETAMO DCT GUERE DCT NARAK |
| Aircraft | A320/M-SDE3FGHIRWY/LB1 |
Departure
| Time | 2026-05-04 21:10 |
|---|---|
| Airport | Charles de Gaulle International Airport (LFPG) |
Arrival
| Time | 2026-05-04 22:28 |
|---|---|
| Airport | Toulouse-Blagnac Airport (LFBO) |
| Time | Latitude | Longitude | Altitude | Speed | Heading |
|---|---|---|---|---|---|
| 2026-05-04 20:48 | 49.01714 | 2.54092 | 354 ft | 0 kts | 209° |
| 2026-05-04 20:58 | 49.01725 | 2.54101 | 362 ft | 2 kts | 209° |
| 2026-05-04 20:58 | 49.01740 | 2.54113 | 361 ft | 2 kts | 209° |
| 2026-05-04 20:58 | 49.01755 | 2.54126 | 364 ft | 2 kts | 209° |
| 2026-05-04 20:58 | 49.01769 | 2.54138 | 358 ft | 2 kts | 209° |
| 2026-05-04 20:59 | 49.01784 | 2.54151 | 362 ft | 2 kts | 209° |
| 2026-05-04 20:59 | 49.01799 | 2.54163 | 358 ft | 2 kts | 233° |
| 2026-05-04 20:59 | 49.01804 | 2.54183 | 364 ft | 0 kts | 272° |
| 2026-05-04 21:03 | 49.01806 | 2.54106 | 354 ft | 15 kts | 272° |
| 2026-05-04 21:04 | 49.01799 | 2.53930 | 354 ft | 18 kts | 264° |
| 2026-05-04 21:04 | 49.01788 | 2.53731 | 362 ft | 20 kts | 266° |
| 2026-05-04 21:04 | 49.01777 | 2.53499 | 358 ft | 23 kts | 264° |
| 2026-05-04 21:04 | 49.01763 | 2.53265 | 355 ft | 23 kts | 265° |
| 2026-05-04 21:05 | 49.01757 | 2.53126 | 358 ft | 4 kts | 266° |
| 2026-05-04 21:05 | 49.01753 | 2.53044 | 356 ft | 13 kts | 266° |
| 2026-05-04 21:05 | 49.01745 | 2.52902 | 356 ft | 14 kts | 264° |
| 2026-05-04 21:05 | 49.01735 | 2.52753 | 356 ft | 15 kts | 264° |
| 2026-05-04 21:06 | 49.01726 | 2.52580 | 356 ft | 16 kts | 267° |
| 2026-05-04 21:06 | 49.01720 | 2.52455 | 357 ft | 11 kts | 266° |
| 2026-05-04 21:06 | 49.01718 | 2.52375 | 360 ft | 8 kts | 267° |
| 2026-05-04 21:06 | 49.01714 | 2.52286 | 363 ft | 9 kts | 265° |
| 2026-05-04 21:07 | 49.01730 | 2.52156 | 356 ft | 12 kts | 322° |
| 2026-05-04 21:07 | 49.01822 | 2.52130 | 354 ft | 15 kts | 355° |
| 2026-05-04 21:07 | 49.01910 | 2.52127 | 354 ft | 10 kts | 12° |
| 2026-05-04 21:07 | 49.01967 | 2.52192 | 354 ft | 12 kts | 57° |
| 2026-05-04 21:08 | 49.02008 | 2.52325 | 362 ft | 15 kts | 65° |
| 2026-05-04 21:08 | 49.02057 | 2.52481 | 357 ft | 17 kts | 65° |
| 2026-05-04 21:08 | 49.02114 | 2.52651 | 357 ft | 18 kts | 60° |
| 2026-05-04 21:08 | 49.02142 | 2.52763 | 356 ft | 0 kts | 85° |
| 2026-05-04 21:09 | 49.02143 | 2.52770 | 356 ft | 5 kts | 85° |
| 2026-05-04 21:09 | 49.02171 | 2.53261 | 354 ft | 95 kts | 85° |
| 2026-05-04 21:09 | 49.02246 | 2.54693 | 419 ft | 166 kts | 85° |
| 2026-05-04 21:10 | 49.02348 | 2.56556 | 1009 ft | 188 kts | 84° |
| 2026-05-04 21:10 | 49.02453 | 2.58536 | 1826 ft | 187 kts | 84° |
| 2026-05-04 21:10 | 49.02557 | 2.60510 | 2583 ft | 187 kts | 84° |
| 2026-05-04 21:10 | 49.02662 | 2.62497 | 3306 ft | 189 kts | 84° |
| 2026-05-04 21:11 | 49.02772 | 2.64562 | 3794 ft | 206 kts | 85° |
| 2026-05-04 21:11 | 49.02890 | 2.66807 | 4452 ft | 216 kts | 85° |
| 2026-05-04 21:11 | 49.03009 | 2.69113 | 5277 ft | 220 kts | 85° |
| 2026-05-04 21:11 | 49.03123 | 2.71451 | 6105 ft | 223 kts | 89° |
| 2026-05-04 21:12 | 49.02824 | 2.73768 | 6878 ft | 227 kts | 117° |
| 2026-05-04 21:12 | 49.01809 | 2.75594 | 7628 ft | 230 kts | 147° |
| 2026-05-04 21:12 | 49.00308 | 2.76400 | 8416 ft | 233 kts | 178° |
| 2026-05-04 21:12 | 48.98727 | 2.75923 | 9198 ft | 236 kts | 208° |
| 2026-05-04 21:13 | 48.97392 | 2.74458 | 10021 ft | 238 kts | 218° |
| 2026-05-04 21:13 | 48.96531 | 2.73411 | 10528 ft | 240 kts | 218° |
| 2026-05-04 21:13 | 48.95223 | 2.71822 | 11290 ft | 242 kts | 218° |
| 2026-05-04 21:13 | 48.93897 | 2.70216 | 12048 ft | 245 kts | 218° |
| 2026-05-04 21:14 | 48.92551 | 2.68590 | 12807 ft | 248 kts | 218° |
| 2026-05-04 21:14 | 48.91188 | 2.66947 | 13575 ft | 252 kts | 218° |
| 2026-05-04 21:14 | 48.89807 | 2.65289 | 14276 ft | 254 kts | 218° |
| 2026-05-04 21:14 | 48.88413 | 2.63617 | 14975 ft | 256 kts | 218° |
| 2026-05-04 21:15 | 48.87006 | 2.61928 | 15677 ft | 259 kts | 217° |
| 2026-05-04 21:15 | 48.85585 | 2.60227 | 16355 ft | 262 kts | 218° |
| 2026-05-04 21:15 | 48.84148 | 2.58508 | 17044 ft | 264 kts | 218° |
| 2026-05-04 21:15 | 48.82699 | 2.56772 | 17726 ft | 267 kts | 218° |
| 2026-05-04 21:16 | 48.81236 | 2.55023 | 18361 ft | 269 kts | 218° |
| 2026-05-04 21:16 | 48.79754 | 2.53253 | 18959 ft | 272 kts | 218° |
| 2026-05-04 21:16 | 48.78264 | 2.51478 | 19566 ft | 273 kts | 217° |
| 2026-05-04 21:16 | 48.76763 | 2.49690 | 20177 ft | 275 kts | 217° |
| 2026-05-04 21:17 | 48.75254 | 2.47896 | 20777 ft | 277 kts | 217° |
| 2026-05-04 21:17 | 48.73735 | 2.46087 | 21356 ft | 279 kts | 217° |
| 2026-05-04 21:17 | 48.72221 | 2.44284 | 21939 ft | 281 kts | 217° |
| 2026-05-04 21:17 | 48.70669 | 2.42441 | 22521 ft | 284 kts | 217° |
| 2026-05-04 21:18 | 48.69111 | 2.40594 | 23094 ft | 286 kts | 217° |
| 2026-05-04 21:18 | 48.67534 | 2.38724 | 23640 ft | 289 kts | 217° |
| 2026-05-04 21:18 | 48.65948 | 2.36842 | 24118 ft | 291 kts | 217° |
| 2026-05-04 21:18 | 48.64350 | 2.34949 | 24611 ft | 292 kts | 217° |
| 2026-05-04 21:19 | 48.62745 | 2.33050 | 25109 ft | 294 kts | 216° |
| 2026-05-04 21:19 | 48.61130 | 2.31146 | 25622 ft | 294 kts | 216° |
| 2026-05-04 21:19 | 48.59515 | 2.29246 | 26130 ft | 295 kts | 216° |
| 2026-05-04 21:19 | 48.57890 | 2.27332 | 26597 ft | 297 kts | 216° |
| 2026-05-04 21:20 | 48.56255 | 2.25403 | 27082 ft | 298 kts | 216° |
| 2026-05-04 21:20 | 48.54622 | 2.23511 | 27536 ft | 300 kts | 213° |
| 2026-05-04 21:20 | 48.52834 | 2.21890 | 27996 ft | 300 kts | 205° |
| 2026-05-04 21:20 | 48.50903 | 2.20680 | 28447 ft | 302 kts | 197° |
| 2026-05-04 21:21 | 48.48862 | 2.19902 | 28905 ft | 303 kts | 189° |
| 2026-05-04 21:21 | 48.46755 | 2.19572 | 29351 ft | 306 kts | 182° |
| 2026-05-04 21:21 | 48.44618 | 2.19672 | 29777 ft | 309 kts | 178° |
| 2026-05-04 21:21 | 48.42465 | 2.19856 | 30186 ft | 310 kts | 179° |
| 2026-05-04 21:22 | 48.40302 | 2.20034 | 30552 ft | 312 kts | 179° |
| 2026-05-04 21:22 | 48.38128 | 2.20210 | 30871 ft | 316 kts | 179° |
| 2026-05-04 21:22 | 48.35891 | 2.20389 | 30934 ft | 328 kts | 179° |
| 2026-05-04 21:22 | 48.33564 | 2.20571 | 30938 ft | 342 kts | 179° |
| 2026-05-04 21:23 | 48.31137 | 2.20764 | 30940 ft | 356 kts | 179° |
| 2026-05-04 21:23 | 48.28622 | 2.21048 | 30942 ft | 370 kts | 174° |
| 2026-05-04 21:23 | 48.26038 | 2.21681 | 30939 ft | 382 kts | 173° |
| 2026-05-04 21:23 | 48.23373 | 2.22332 | 30940 ft | 393 kts | 173° |
| 2026-05-04 21:24 | 48.17830 | 2.23667 | 30942 ft | 412 kts | 173° |
| 2026-05-04 21:24 | 48.12051 | 2.25062 | 30942 ft | 427 kts | 173° |
| 2026-05-04 21:25 | 48.06178 | 2.26119 | 30945 ft | 428 kts | 179° |
| 2026-05-04 21:25 | 48.00221 | 2.26503 | 30945 ft | 429 kts | 179° |
| 2026-05-04 21:26 | 47.94269 | 2.26874 | 30947 ft | 428 kts | 179° |
| 2026-05-04 21:26 | 47.88326 | 2.27245 | 30947 ft | 427 kts | 179° |
| 2026-05-04 21:27 | 47.82386 | 2.27622 | 30946 ft | 427 kts | 179° |
| 2026-05-04 21:27 | 47.76438 | 2.28006 | 30927 ft | 427 kts | 179° |
| 2026-05-04 21:28 | 47.70508 | 2.28388 | 30928 ft | 426 kts | 179° |
| 2026-05-04 21:28 | 47.64588 | 2.28764 | 30925 ft | 426 kts | 179° |
| 2026-05-04 21:29 | 47.58670 | 2.29127 | 30926 ft | 426 kts | 179° |
| 2026-05-04 21:29 | 47.52746 | 2.29493 | 30920 ft | 426 kts | 179° |
| 2026-05-04 21:30 | 47.46833 | 2.29863 | 30923 ft | 426 kts | 179° |
| 2026-05-04 21:30 | 47.40913 | 2.30239 | 30923 ft | 426 kts | 179° |
| 2026-05-04 21:31 | 47.32041 | 2.30792 | 30920 ft | 425 kts | 179° |
| 2026-05-04 21:32 | 47.26125 | 2.31155 | 30919 ft | 425 kts | 179° |
| 2026-05-04 21:32 | 47.20249 | 2.31522 | 30920 ft | 425 kts | 179° |
| 2026-05-04 21:33 | 47.14335 | 2.31888 | 30917 ft | 425 kts | 179° |
| 2026-05-04 21:33 | 47.08433 | 2.32253 | 30914 ft | 424 kts | 179° |
| 2026-05-04 21:34 | 47.02534 | 2.32614 | 30914 ft | 424 kts | 179° |
| 2026-05-04 21:34 | 46.96637 | 2.32976 | 30916 ft | 424 kts | 179° |
| 2026-05-04 21:35 | 46.90743 | 2.33334 | 30918 ft | 424 kts | 179° |
| 2026-05-04 21:35 | 46.84853 | 2.33564 | 30915 ft | 423 kts | 184° |
| 2026-05-04 21:35 | 46.81967 | 2.32911 | 31421 ft | 412 kts | 194° |
| 2026-05-04 21:36 | 46.79249 | 2.31831 | 32353 ft | 399 kts | 195° |
| 2026-05-04 21:36 | 46.76571 | 2.30796 | 32724 ft | 399 kts | 195° |
| 2026-05-04 21:36 | 46.73878 | 2.29780 | 32887 ft | 401 kts | 194° |
| 2026-05-04 21:37 | 46.68460 | 2.27748 | 32914 ft | 403 kts | 195° |
| 2026-05-04 21:37 | 46.62996 | 2.25662 | 32915 ft | 413 kts | 195° |
| 2026-05-04 21:38 | 46.57418 | 2.23520 | 32918 ft | 415 kts | 195° |
| 2026-05-04 21:38 | 46.51831 | 2.21390 | 32923 ft | 415 kts | 195° |
| 2026-05-04 21:39 | 46.46249 | 2.19267 | 32921 ft | 414 kts | 195° |
| 2026-05-04 21:39 | 46.40670 | 2.17146 | 32920 ft | 414 kts | 195° |
| 2026-05-04 21:40 | 46.35098 | 2.15034 | 32927 ft | 414 kts | 195° |
| 2026-05-04 21:40 | 46.29560 | 2.12932 | 33588 ft | 399 kts | 195° |
| 2026-05-04 21:40 | 46.26922 | 2.11934 | 34414 ft | 387 kts | 195° |
| 2026-05-04 21:41 | 46.24350 | 2.10964 | 34727 ft | 388 kts | 195° |
| 2026-05-04 21:41 | 46.21730 | 2.09981 | 34887 ft | 391 kts | 195° |
| 2026-05-04 21:41 | 46.19069 | 2.09021 | 34929 ft | 397 kts | 192° |
| 2026-05-04 21:42 | 46.13544 | 2.07944 | 34933 ft | 402 kts | 188° |
| 2026-05-04 21:42 | 46.07977 | 2.06915 | 34932 ft | 408 kts | 189° |
| 2026-05-04 21:43 | 46.02284 | 2.05854 | 34939 ft | 415 kts | 189° |
| 2026-05-04 21:43 | 45.96547 | 2.04785 | 34939 ft | 416 kts | 189° |
| 2026-05-04 21:44 | 45.90815 | 2.03728 | 34946 ft | 415 kts | 188° |
| 2026-05-04 21:44 | 45.85090 | 2.02686 | 34945 ft | 414 kts | 188° |
| 2026-05-04 21:45 | 45.79363 | 2.01645 | 34945 ft | 414 kts | 188° |
| 2026-05-04 21:45 | 45.73672 | 2.00603 | 34949 ft | 414 kts | 188° |
| 2026-05-04 21:46 | 45.67951 | 1.99547 | 34950 ft | 414 kts | 188° |
| 2026-05-04 21:46 | 45.62229 | 1.98496 | 34956 ft | 414 kts | 188° |
| 2026-05-04 21:47 | 45.56509 | 1.97452 | 34961 ft | 414 kts | 188° |
| 2026-05-04 21:47 | 45.50786 | 1.96416 | 34952 ft | 415 kts | 188° |
| 2026-05-04 21:48 | 45.45049 | 1.95373 | 34952 ft | 415 kts | 188° |
| 2026-05-04 21:48 | 45.39319 | 1.94349 | 34952 ft | 415 kts | 188° |
| 2026-05-04 21:49 | 45.33582 | 1.93318 | 34953 ft | 416 kts | 188° |
| 2026-05-04 21:49 | 45.27832 | 1.92279 | 34963 ft | 417 kts | 188° |
| 2026-05-04 21:50 | 45.22101 | 1.91242 | 34954 ft | 418 kts | 188° |
| 2026-05-04 21:50 | 45.16326 | 1.90200 | 34951 ft | 419 kts | 188° |
| 2026-05-04 21:51 | 45.10531 | 1.89162 | 34949 ft | 420 kts | 188° |
| 2026-05-04 21:51 | 45.04727 | 1.88125 | 34956 ft | 421 kts | 188° |
| 2026-05-04 21:52 | 44.98912 | 1.87093 | 34956 ft | 421 kts | 188° |
| 2026-05-04 21:52 | 44.96001 | 1.86572 | 34736 ft | 419 kts | 188° |
| 2026-05-04 21:52 | 44.93109 | 1.86057 | 34023 ft | 419 kts | 187° |
| 2026-05-04 21:52 | 44.90216 | 1.85544 | 33344 ft | 419 kts | 187° |
| 2026-05-04 21:53 | 44.87315 | 1.85031 | 32669 ft | 420 kts | 187° |
| 2026-05-04 21:53 | 44.84453 | 1.84526 | 31985 ft | 421 kts | 187° |
| 2026-05-04 21:53 | 44.81546 | 1.84013 | 31297 ft | 421 kts | 186° |
| 2026-05-04 21:53 | 44.78634 | 1.83500 | 30616 ft | 422 kts | 186° |
| 2026-05-04 21:54 | 44.75716 | 1.82988 | 29940 ft | 423 kts | 186° |
| 2026-05-04 21:54 | 44.72789 | 1.82471 | 29162 ft | 425 kts | 186° |
| 2026-05-04 21:54 | 44.69839 | 1.81946 | 28422 ft | 429 kts | 186° |
| 2026-05-04 21:54 | 44.66866 | 1.81419 | 27692 ft | 433 kts | 186° |
| 2026-05-04 21:55 | 44.63863 | 1.80888 | 26980 ft | 437 kts | 186° |
| 2026-05-04 21:55 | 44.60831 | 1.80355 | 26281 ft | 441 kts | 186° |
| 2026-05-04 21:55 | 44.57780 | 1.79820 | 25590 ft | 439 kts | 186° |
| 2026-05-04 21:55 | 44.54792 | 1.79295 | 24946 ft | 427 kts | 186° |
| 2026-05-04 21:56 | 44.51877 | 1.78780 | 24305 ft | 418 kts | 186° |
| 2026-05-04 21:56 | 44.49019 | 1.78274 | 23675 ft | 411 kts | 185° |
| 2026-05-04 21:56 | 44.46201 | 1.77780 | 22953 ft | 405 kts | 186° |
| 2026-05-04 21:56 | 44.43422 | 1.77295 | 22224 ft | 400 kts | 186° |
| 2026-05-04 21:57 | 44.40667 | 1.76817 | 21499 ft | 396 kts | 186° |
| 2026-05-04 21:57 | 44.37940 | 1.76343 | 20805 ft | 393 kts | 186° |
| 2026-05-04 21:57 | 44.35275 | 1.75882 | 20142 ft | 391 kts | 186° |
| 2026-05-04 21:57 | 44.32501 | 1.75404 | 19473 ft | 415 kts | 187° |
| 2026-05-04 21:58 | 44.29592 | 1.74896 | 18825 ft | 425 kts | 187° |
| 2026-05-04 21:58 | 44.26671 | 1.74263 | 18177 ft | 424 kts | 190° |
| 2026-05-04 21:58 | 44.23782 | 1.73488 | 17449 ft | 422 kts | 192° |
| 2026-05-04 21:58 | 44.20921 | 1.72633 | 16729 ft | 419 kts | 192° |
| 2026-05-04 21:59 | 44.18084 | 1.71755 | 16037 ft | 416 kts | 193° |
| 2026-05-04 21:59 | 44.15269 | 1.70894 | 15359 ft | 413 kts | 193° |
| 2026-05-04 21:59 | 44.12466 | 1.70062 | 14698 ft | 411 kts | 193° |
| 2026-05-04 21:59 | 44.09680 | 1.69263 | 14050 ft | 406 kts | 193° |
| 2026-05-04 22:00 | 44.06927 | 1.68493 | 13364 ft | 401 kts | 193° |
| 2026-05-04 22:00 | 44.04211 | 1.67740 | 12649 ft | 395 kts | 193° |
| 2026-05-04 22:00 | 44.01535 | 1.67001 | 11950 ft | 389 kts | 192° |
| 2026-05-04 22:00 | 43.99799 | 1.66522 | 11496 ft | 379 kts | 192° |
| 2026-05-04 22:01 | 43.97262 | 1.65821 | 10831 ft | 365 kts | 193° |
| 2026-05-04 22:01 | 43.94829 | 1.65148 | 10210 ft | 348 kts | 193° |
| 2026-05-04 22:01 | 43.92486 | 1.64494 | 9952 ft | 336 kts | 193° |
| 2026-05-04 22:01 | 43.90261 | 1.63874 | 9867 ft | 312 kts | 193° |
| 2026-05-04 22:02 | 43.88234 | 1.63312 | 9842 ft | 284 kts | 193° |
| 2026-05-04 22:02 | 43.86328 | 1.62782 | 9344 ft | 274 kts | 194° |
| 2026-05-04 22:02 | 43.84490 | 1.62272 | 9035 ft | 267 kts | 194° |
| 2026-05-04 22:02 | 43.82681 | 1.61765 | 8723 ft | 263 kts | 194° |
| 2026-05-04 22:03 | 43.80894 | 1.61263 | 8428 ft | 259 kts | 194° |
| 2026-05-04 22:03 | 43.79144 | 1.60777 | 8140 ft | 254 kts | 194° |
| 2026-05-04 22:03 | 43.77423 | 1.60300 | 7865 ft | 250 kts | 194° |
| 2026-05-04 22:03 | 43.75753 | 1.59836 | 7597 ft | 245 kts | 194° |
| 2026-05-04 22:04 | 43.74087 | 1.59371 | 7326 ft | 242 kts | 194° |
| 2026-05-04 22:04 | 43.72449 | 1.58915 | 7056 ft | 239 kts | 194° |
| 2026-05-04 22:04 | 43.70803 | 1.58454 | 6789 ft | 244 kts | 194° |
| 2026-05-04 22:04 | 43.69128 | 1.57988 | 6521 ft | 246 kts | 194° |
| 2026-05-04 22:05 | 43.67449 | 1.57523 | 6246 ft | 246 kts | 193° |
| 2026-05-04 22:05 | 43.65774 | 1.57061 | 5963 ft | 244 kts | 194° |
| 2026-05-04 22:05 | 43.64108 | 1.56601 | 5675 ft | 244 kts | 194° |
| 2026-05-04 22:05 | 43.62474 | 1.56152 | 5374 ft | 241 kts | 194° |
| 2026-05-04 22:06 | 43.60840 | 1.55703 | 5067 ft | 238 kts | 194° |
| 2026-05-04 22:06 | 43.59226 | 1.55259 | 4764 ft | 235 kts | 195° |
| 2026-05-04 22:06 | 43.57631 | 1.54818 | 4445 ft | 233 kts | 194° |
| 2026-05-04 22:06 | 43.56053 | 1.54380 | 4158 ft | 231 kts | 195° |
| 2026-05-04 22:07 | 43.54521 | 1.53959 | 4001 ft | 216 kts | 195° |
| 2026-05-04 22:07 | 43.53112 | 1.53575 | 4034 ft | 197 kts | 195° |
| 2026-05-04 22:07 | 43.51842 | 1.53177 | 3998 ft | 177 kts | 208° |
| 2026-05-04 22:07 | 43.50921 | 1.52207 | 4000 ft | 163 kts | 239° |
| 2026-05-04 22:08 | 43.50514 | 1.50797 | 4004 ft | 158 kts | 267° |
| 2026-05-04 22:08 | 43.50670 | 1.49329 | 4011 ft | 156 kts | 295° |
| 2026-05-04 22:08 | 43.51329 | 1.48169 | 4011 ft | 156 kts | 321° |
| 2026-05-04 22:08 | 43.52193 | 1.47276 | 3730 ft | 160 kts | 321° |
| 2026-05-04 22:09 | 43.53103 | 1.46337 | 3335 ft | 161 kts | 321° |
| 2026-05-04 22:09 | 43.53985 | 1.45425 | 3081 ft | 156 kts | 321° |
| 2026-05-04 22:09 | 43.54844 | 1.44535 | 2823 ft | 153 kts | 320° |
| 2026-05-04 22:09 | 43.55689 | 1.43660 | 2510 ft | 150 kts | 320° |
| 2026-05-04 22:10 | 43.56518 | 1.42800 | 2155 ft | 146 kts | 319° |
| 2026-05-04 22:10 | 43.57299 | 1.41990 | 1769 ft | 138 kts | 318° |
| 2026-05-04 22:10 | 43.58050 | 1.41211 | 1442 ft | 130 kts | 319° |
| 2026-05-04 22:10 | 43.58788 | 1.40444 | 1291 ft | 132 kts | 317° |
| 2026-05-04 22:11 | 43.59523 | 1.39683 | 1162 ft | 133 kts | 319° |
| 2026-05-04 22:11 | 43.60257 | 1.38923 | 953 ft | 131 kts | 320° |
| 2026-05-04 22:11 | 43.60980 | 1.38169 | 791 ft | 130 kts | 320° |
| 2026-05-04 22:11 | 43.61703 | 1.37429 | 614 ft | 126 kts | 316° |
| 2026-05-04 22:12 | 43.62364 | 1.36737 | 493 ft | 108 kts | 321° |
| 2026-05-04 22:12 | 43.62999 | 1.36059 | 643 ft | 135 kts | 322° |
| 2026-05-04 22:12 | 43.63773 | 1.35394 | 1123 ft | 130 kts | 326° |
| 2026-05-04 22:12 | 43.64582 | 1.34689 | 1567 ft | 142 kts | 322° |
| 2026-05-04 22:13 | 43.65433 | 1.33872 | 1929 ft | 164 kts | 321° |
| 2026-05-04 22:13 | 43.66386 | 1.32906 | 2575 ft | 163 kts | 320° |
| 2026-05-04 22:13 | 43.67208 | 1.32001 | 3596 ft | 139 kts | 319° |
| 2026-05-04 22:13 | 43.67953 | 1.31141 | 4209 ft | 149 kts | 313° |
| 2026-05-04 22:14 | 43.68661 | 1.29799 | 4583 ft | 200 kts | 301° |
| 2026-05-04 22:14 | 43.69487 | 1.28049 | 5188 ft | 241 kts | 303° |
| 2026-05-04 22:14 | 43.70528 | 1.25914 | 5059 ft | 279 kts | 304° |
| 2026-05-04 22:14 | 43.71585 | 1.23770 | 5015 ft | 261 kts | 304° |
| 2026-05-04 22:15 | 43.72592 | 1.21731 | 5009 ft | 255 kts | 304° |
| 2026-05-04 22:15 | 43.73575 | 1.19734 | 5011 ft | 255 kts | 304° |
| 2026-05-04 22:15 | 43.74568 | 1.17706 | 5008 ft | 254 kts | 304° |
| 2026-05-04 22:15 | 43.75401 | 1.15562 | 5008 ft | 255 kts | 285° |
| 2026-05-04 22:16 | 43.75438 | 1.13132 | 5011 ft | 258 kts | 257° |
| 2026-05-04 22:16 | 43.74588 | 1.10956 | 5006 ft | 263 kts | 229° |
| 2026-05-04 22:16 | 43.73046 | 1.09593 | 5010 ft | 269 kts | 200° |
| 2026-05-04 22:16 | 43.71177 | 1.09376 | 5014 ft | 274 kts | 176° |
| 2026-05-04 22:17 | 43.69283 | 1.09766 | 5010 ft | 275 kts | 172° |
| 2026-05-04 22:17 | 43.67402 | 1.10260 | 5007 ft | 276 kts | 166° |
| 2026-05-04 22:17 | 43.65664 | 1.11316 | 4890 ft | 267 kts | 153° |
| 2026-05-04 22:17 | 43.64080 | 1.12525 | 4761 ft | 254 kts | 152° |
| 2026-05-04 22:18 | 43.62580 | 1.13698 | 4631 ft | 242 kts | 152° |
| 2026-05-04 22:18 | 43.61149 | 1.14823 | 4497 ft | 232 kts | 151° |
| 2026-05-04 22:18 | 43.59856 | 1.16061 | 4397 ft | 222 kts | 138° |
| 2026-05-04 22:18 | 43.58825 | 1.17552 | 4259 ft | 209 kts | 133° |
| 2026-05-04 22:19 | 43.57876 | 1.19045 | 3973 ft | 206 kts | 132° |
| 2026-05-04 22:19 | 43.56940 | 1.20530 | 3644 ft | 205 kts | 132° |
| 2026-05-04 22:19 | 43.56009 | 1.22008 | 3305 ft | 204 kts | 132° |
| 2026-05-04 22:19 | 43.55081 | 1.23476 | 3034 ft | 202 kts | 132° |
| 2026-05-04 22:20 | 43.54153 | 1.24942 | 3013 ft | 204 kts | 132° |
| 2026-05-04 22:20 | 43.53229 | 1.26397 | 3018 ft | 204 kts | 132° |
| 2026-05-04 22:20 | 43.52292 | 1.27871 | 3018 ft | 204 kts | 132° |
| 2026-05-04 22:20 | 43.51378 | 1.29367 | 3014 ft | 205 kts | 124° |
| 2026-05-04 22:21 | 43.50869 | 1.31181 | 3016 ft | 204 kts | 101° |
| 2026-05-04 22:21 | 43.50548 | 1.33095 | 3012 ft | 205 kts | 101° |
| 2026-05-04 22:21 | 43.50229 | 1.35009 | 3018 ft | 205 kts | 101° |
| 2026-05-04 22:21 | 43.49911 | 1.36916 | 3020 ft | 204 kts | 101° |
| 2026-05-04 22:22 | 43.49596 | 1.38795 | 3005 ft | 195 kts | 101° |
| 2026-05-04 22:22 | 43.49297 | 1.40569 | 3009 ft | 186 kts | 101° |
| 2026-05-04 22:22 | 43.49009 | 1.42290 | 3009 ft | 183 kts | 100° |
| 2026-05-04 22:22 | 43.48741 | 1.43993 | 3013 ft | 181 kts | 94° |
| 2026-05-04 22:23 | 43.48894 | 1.45684 | 3007 ft | 178 kts | 64° |
| 2026-05-04 22:23 | 43.49582 | 1.47030 | 2980 ft | 170 kts | 34° |
| 2026-05-04 22:23 | 43.50581 | 1.47766 | 2940 ft | 163 kts | 9° |
| 2026-05-04 22:23 | 43.51681 | 1.47833 | 2835 ft | 156 kts | 344° |
| 2026-05-04 22:24 | 43.52649 | 1.47275 | 2715 ft | 149 kts | 321° |
| 2026-05-04 22:24 | 43.53473 | 1.46422 | 2527 ft | 147 kts | 320° |
| 2026-05-04 22:24 | 43.54286 | 1.45579 | 2343 ft | 145 kts | 320° |
| 2026-05-04 22:24 | 43.55093 | 1.44743 | 2145 ft | 144 kts | 320° |
| 2026-05-04 22:25 | 43.55879 | 1.43929 | 1938 ft | 135 kts | 319° |
| 2026-05-04 22:25 | 43.56601 | 1.43181 | 1777 ft | 127 kts | 318° |
| 2026-05-04 22:25 | 43.57300 | 1.42455 | 1603 ft | 126 kts | 319° |
| 2026-05-04 22:25 | 43.58014 | 1.41712 | 1424 ft | 130 kts | 318° |
| 2026-05-04 22:26 | 43.58734 | 1.40965 | 1256 ft | 128 kts | 318° |
| 2026-05-04 22:26 | 43.59449 | 1.40222 | 1066 ft | 128 kts | 317° |
| 2026-05-04 22:26 | 43.60149 | 1.39496 | 896 ft | 127 kts | 317° |
| 2026-05-04 22:26 | 43.60862 | 1.38755 | 723 ft | 129 kts | 318° |
| 2026-05-04 22:27 | 43.61579 | 1.38009 | 556 ft | 129 kts | 319° |
| 2026-05-04 22:27 | 43.62260 | 1.37295 | 487 ft | 108 kts | 323° |
| 2026-05-04 22:27 | 43.62731 | 1.36811 | 495 ft | 68 kts | 322° |
| 2026-05-04 22:27 | 43.63062 | 1.36460 | 489 ft | 53 kts | 321° |
| 2026-05-04 22:28 | 43.63321 | 1.36194 | 491 ft | 36 kts | 325° |
| 2026-05-04 22:28 | 43.63509 | 1.36008 | 495 ft | 32 kts | 322° |
| 2026-05-04 22:28 | 43.63650 | 1.35851 | 489 ft | 18 kts | 324° |
| 2026-05-04 22:28 | 43.63751 | 1.35825 | 493 ft | 16 kts | 33° |
| 2026-05-04 22:29 | 43.63814 | 1.35946 | 494 ft | 15 kts | 75° |
| 2026-05-04 22:29 | 43.63763 | 1.36047 | 493 ft | 13 kts | 145° |
| 2026-05-04 22:29 | 43.63690 | 1.36118 | 493 ft | 12 kts | 143° |
| 2026-05-04 22:29 | 43.63625 | 1.36189 | 487 ft | 12 kts | 139° |
| 2026-05-04 22:30 | 43.63554 | 1.36267 | 490 ft | 18 kts | 142° |
| 2026-05-04 22:30 | 43.63411 | 1.36410 | 495 ft | 32 kts | 143° |
| 2026-05-04 22:30 | 43.63268 | 1.36575 | 495 ft | 17 kts | 114° |
| 2026-05-04 22:30 | 43.63283 | 1.36718 | 488 ft | 15 kts | 74° |
| 2026-05-04 22:31 | 43.63257 | 1.36849 | 491 ft | 14 kts | 115° |
| 2026-05-04 22:31 | 43.63231 | 1.36928 | 493 ft | 1 kts | 113° |
| 2026-05-04 22:31 | 43.63229 | 1.36933 | 487 ft | 0 kts | 113° |